Time;durP1;ratioP1;P1;durP2;ratioP2;P2;SDS_P1;SDS_P2;PMS_P1;PMS_P2;Temp;Humidity;BMP_temperature;BMP_pressure;BME280_temperature;BME280_humidity;BME280_pressure;Samples;Min_cycle;Max_cycle;Signal;HPM_P1;HPM_P2
2022/02/28 00:01:56;;;;;;;4.35;1.90;;;3.20;1.00;;;;;;5047105;28;20848;-62
2022/02/28 00:04:25;;;;;;;3.45;1.80;;;3.40;1.00;;;;;;5053267;28;20488;-62
2022/02/28 00:06:52;;;;;;;3.08;1.80;;;3.50;1.00;;;;;;5053882;28;20428;-62
2022/02/28 00:09:19;;;;;;;2.20;1.50;;;3.40;1.00;;;;;;5049144;28;20516;-62
2022/02/28 00:11:48;;;;;;;2.60;1.40;;;3.50;1.00;;;;;;5034738;28;20471;-62
2022/02/28 00:14:15;;;;;;;3.58;1.45;;;3.50;1.00;;;;;;5037230;28;20494;-62
2022/02/28 00:16:42;;;;;;;2.60;1.50;;;3.50;1.00;;;;;;5054441;28;20491;-62
2022/02/28 00:19:09;;;;;;;2.10;1.52;;;3.40;1.00;;;;;;5053972;28;20433;-62
2022/02/28 00:21:36;;;;;;;2.55;1.42;;;3.30;1.00;;;;;;5054941;28;20463;-62
2022/02/28 00:24:03;;;;;;;3.28;1.73;;;3.20;1.00;;;;;;5046719;28;20433;-62
2022/02/28 00:26:30;;;;;;;3.72;1.70;;;3.00;1.00;;;;;;5054714;28;20702;-62
2022/02/28 00:28:58;;;;;;;3.92;1.60;;;2.90;1.00;;;;;;5052167;28;20468;-62
2022/02/28 00:31:25;;;;;;;2.97;1.55;;;2.80;1.00;;;;;;5051647;28;20474;-62
2022/02/28 00:33:52;;;;;;;4.20;1.90;;;2.70;1.00;;;;;;5041193;28;20518;-62
2022/02/28 00:36:19;;;;;;;3.63;1.80;;;2.70;1.00;;;;;;5050618;28;20469;-62
2022/02/28 00:38:46;;;;;;;4.10;1.90;;;2.70;1.00;;;;;;5050326;28;20486;-62
2022/02/28 00:41:14;;;;;;;3.83;1.40;;;2.70;1.00;;;;;;5050837;28;20456;-62
2022/02/28 00:43:41;;;;;;;3.60;1.40;;;2.60;1.00;;;;;;5053024;28;20433;-62
2022/02/28 00:46:10;;;;;;;2.83;1.73;;;2.50;1.00;;;;;;5055525;28;20424;-62
2022/02/28 00:48:37;;;;;;;2.78;1.60;;;2.50;1.00;;;;;;5055153;28;20491;-62
2022/02/28 00:51:04;;;;;;;2.88;1.40;;;2.50;1.00;;;;;;5058332;28;20729;-62
2022/02/28 00:53:31;;;;;;;3.22;1.80;;;2.50;1.00;;;;;;5056275;28;20513;-62
2022/02/28 00:55:58;;;;;;;4.00;1.60;;;2.50;1.00;;;;;;5057508;28;20429;-62
2022/02/28 00:58:25;;;;;;;3.05;1.70;;;2.50;1.00;;;;;;5057188;28;20910;-62
2022/02/28 01:00:52;;;;;;;3.47;1.63;;;2.40;1.00;;;;;;5056956;28;20879;-62
2022/02/28 01:03:20;;;;;;;4.28;1.80;;;2.40;1.00;;;;;;5056875;28;20868;-62
2022/02/28 01:05:48;;;;;;;3.43;1.47;;;2.30;1.00;;;;;;5057747;28;20722;-62
2022/02/28 01:08:14;;;;;;;3.38;1.50;;;2.30;1.00;;;;;;5056030;28;20780;-62
2022/02/28 01:10:42;;;;;;;3.03;1.55;;;2.30;1.00;;;;;;5057021;28;20784;-62
2022/02/28 01:13:10;;;;;;;3.28;1.50;;;2.40;1.00;;;;;;5057722;28;20468;-62
2022/02/28 01:15:38;;;;;;;2.72;1.40;;;2.40;1.00;;;;;;5056786;28;20433;-62
2022/02/28 01:18:06;;;;;;;2.50;1.40;;;2.40;1.00;;;;;;5037712;28;20540;-62
2022/02/28 01:20:34;;;;;;;6.10;2.10;;;2.40;1.00;;;;;;5055976;28;20421;-62
2022/02/28 01:23:01;;;;;;;3.25;1.67;;;2.50;1.00;;;;;;5037478;28;20438;-62
2022/02/28 01:25:28;;;;;;;2.50;1.48;;;2.50;1.00;;;;;;5037529;28;20494;-62
2022/02/28 01:27:55;;;;;;;2.70;1.70;;;2.60;1.00;;;;;;5055532;28;20511;-62
2022/02/28 01:30:23;;;;;;;3.17;1.60;;;2.60;1.00;;;;;;5046045;28;20557;-62
2022/02/28 01:32:50;;;;;;;4.05;1.80;;;2.70;1.00;;;;;;5037158;28;20431;-62
2022/02/28 01:35:17;;;;;;;2.75;1.30;;;2.70;1.00;;;;;;5036869;28;20435;-63
2022/02/28 01:37:45;;;;;;;3.33;1.63;;;2.70;1.00;;;;;;5048899;28;20433;-62
2022/02/28 01:40:15;;;;;;;3.85;1.70;;;2.70;1.00;;;;;;5057111;28;20426;-62
2022/02/28 01:42:44;;;;;;;3.75;1.60;;;2.70;1.00;;;;;;5056259;28;20491;-62
2022/02/28 01:45:12;;;;;;;3.00;1.50;;;2.60;1.00;;;;;;5057766;28;20436;-62
2022/02/28 01:47:39;;;;;;;4.00;1.50;;;2.60;1.00;;;;;;5055207;28;20426;-62
2022/02/28 01:50:07;;;;;;;2.80;1.50;;;2.50;1.00;;;;;;5057295;28;20429;-62
2022/02/28 01:52:35;;;;;;;3.80;1.60;;;2.40;1.00;;;;;;5054670;28;20497;-62
2022/02/28 01:55:04;;;;;;;4.10;1.90;;;2.50;1.00;;;;;;5057023;28;20502;-62
2022/02/28 01:57:31;;;;;;;2.65;1.60;;;2.50;1.00;;;;;;5056346;28;20506;-62
2022/02/28 01:59:58;;;;;;;3.28;1.67;;;2.50;1.00;;;;;;5057136;28;20741;-62
2022/02/28 02:02:25;;;;;;;3.60;1.38;;;2.50;1.00;;;;;;5056335;28;20425;-62
2022/02/28 02:04:52;;;;;;;2.90;1.63;;;2.50;1.00;;;;;;5056341;28;20499;-62
2022/02/28 02:07:19;;;;;;;3.95;1.80;;;2.50;1.00;;;;;;5041333;28;20473;-62
2022/02/28 02:09:46;;;;;;;3.17;1.58;;;2.50;1.00;;;;;;5035887;28;20751;-62
2022/02/28 02:12:14;;;;;;;3.88;1.73;;;2.40;1.00;;;;;;5036198;28;20801;-62
2022/02/28 02:14:42;;;;;;;3.20;1.60;;;2.20;1.00;;;;;;5055457;28;20434;-62
2022/02/28 02:17:10;;;;;;;3.65;1.63;;;2.10;1.00;;;;;;5054224;28;20855;-61
2022/02/28 02:19:38;;;;;;;2.88;1.80;;;2.10;1.00;;;;;;5056227;28;20490;-61
2022/02/28 02:22:07;;;;;;;3.47;1.88;;;2.10;1.00;;;;;;5046453;28;20425;-61
2022/02/28 02:24:34;;;;;;;2.72;1.60;;;2.20;1.00;;;;;;5056144;28;20506;-62
2022/02/28 02:27:01;;;;;;;3.35;1.40;;;2.30;1.00;;;;;;5054391;28;20425;-62
2022/02/28 02:29:28;;;;;;;3.20;1.50;;;2.30;1.00;;;;;;5056403;28;20429;-62
2022/02/28 02:31:55;;;;;;;2.65;1.50;;;2.30;1.00;;;;;;5055124;28;20425;-61
2022/02/28 02:34:22;;;;;;;3.88;1.60;;;2.30;1.00;;;;;;5056351;28;20841;-61
2022/02/28 02:36:49;;;;;;;3.65;1.30;;;2.30;1.00;;;;;;5042652;28;20439;-61
2022/02/28 02:39:17;;;;;;;3.40;1.85;;;2.40;1.00;;;;;;5041855;28;20437;-62
2022/02/28 02:41:44;;;;;;;3.33;1.60;;;2.40;1.00;;;;;;5055791;28;20499;-62
2022/02/28 02:44:11;;;;;;;4.35;1.40;;;2.30;1.00;;;;;;5054696;28;20488;-61
2022/02/28 02:46:56;;;;;;;2.63;1.40;;;2.10;1.00;;;;;;5056174;28;20778;-61
2022/02/28 02:49:23;;;;;;;3.60;1.40;;;1.90;32.60;;;;;;5040141;28;20866;-61
2022/02/28 02:51:50;;;;;;;2.88;1.83;;;1.90;74.00;;;;;;5036129;28;20726;-61
2022/02/28 02:54:19;;;;;;;3.22;1.48;;;1.80;78.30;;;;;;5035932;28;20459;-61
2022/02/28 02:56:46;;;;;;;4.80;1.80;;;1.80;68.20;;;;;;5036451;28;20743;-61
2022/02/28 02:59:13;;;;;;;2.38;1.50;;;1.70;50.50;;;;;;5041484;28;20803;-61
2022/02/28 03:01:40;;;;;;;2.80;1.30;;;1.60;38.60;;;;;;5035366;28;20778;-61
2022/02/28 03:04:07;;;;;;;3.95;1.40;;;1.50;75.70;;;;;;5039474;28;20429;-61
2022/02/28 03:06:35;;;;;;;4.03;1.73;;;1.40;99.90;;;;;;5054261;28;20494;-61
2022/02/28 03:09:02;;;;;;;5.05;2.00;;;1.40;99.90;;;;;;5040598;28;20874;-61
2022/02/28 03:11:30;;;;;;;3.20;1.50;;;1.40;99.90;;;;;;5060024;28;20781;-61
2022/02/28 03:13:57;;;;;;;3.60;1.58;;;1.50;99.90;;;;;;5073139;28;20434;-61
2022/02/28 03:16:24;;;;;;;3.05;1.80;;;1.50;99.90;;;;;;5058608;28;20437;-61
2022/02/28 03:18:51;;;;;;;3.80;1.50;;;1.60;99.90;;;;;;5044202;28;20786;-61
2022/02/28 03:21:18;;;;;;;3.90;1.60;;;1.60;99.90;;;;;;5041674;28;20425;-61
2022/02/28 03:23:45;;;;;;;3.00;1.40;;;1.60;99.90;;;;;;5052734;28;20514;-61
2022/02/28 03:26:12;;;;;;;4.35;1.77;;;1.60;99.90;;;;;;5042667;28;20453;-61
2022/02/28 03:28:40;;;;;;;4.85;1.65;;;1.60;99.90;;;;;;5051551;28;20846;-61
2022/02/28 03:31:07;;;;;;;2.20;1.33;;;1.50;99.90;;;;;;5043274;28;20423;-61
2022/02/28 03:33:34;;;;;;;3.60;1.60;;;1.50;99.90;;;;;;5042126;28;20799;-61
2022/02/28 03:36:01;;;;;;;3.37;1.60;;;1.50;99.90;;;;;;5047249;28;20431;-61
2022/02/28 03:38:28;;;;;;;3.15;1.50;;;1.60;99.90;;;;;;5035372;28;20423;-62
2022/02/28 03:40:55;;;;;;;3.20;1.50;;;1.60;99.90;;;;;;5036460;28;20427;-61
2022/02/28 03:43:22;;;;;;;3.10;1.40;;;1.70;99.90;;;;;;5047924;28;20487;-61
2022/02/28 03:45:50;;;;;;;2.30;1.40;;;1.60;99.90;;;;;;5049249;28;20461;-61
2022/02/28 03:48:17;;;;;;;1.95;1.38;;;1.50;99.90;;;;;;5035203;28;20423;-61
2022/02/28 03:50:44;;;;;;;3.47;1.40;;;1.50;99.90;;;;;;5036160;28;20459;-61
2022/02/28 03:53:11;;;;;;;2.55;1.30;;;1.50;99.90;;;;;;5054954;28;20426;-60
2022/02/28 03:55:38;;;;;;;2.85;1.50;;;1.40;99.90;;;;;;5054674;28;20491;-61
2022/02/28 03:58:05;;;;;;;4.85;1.80;;;1.40;99.90;;;;;;5055154;28;20482;-61
2022/02/28 04:00:32;;;;;;;2.83;1.80;;;1.30;99.90;;;;;;5051744;28;20816;-61
2022/02/28 04:03:00;;;;;;;3.25;1.70;;;1.30;99.90;;;;;;5035159;28;20485;-61
2022/02/28 04:05:27;;;;;;;2.53;1.50;;;1.10;99.90;;;;;;5040219;28;20513;-61
2022/02/28 04:07:54;;;;;;;3.63;1.75;;;1.10;1.00;;;;;;5035160;28;20500;-61
2022/02/28 04:10:21;;;;;;;4.05;1.70;;;1.00;1.00;;;;;;5036412;28;20790;-61
2022/02/28 04:12:48;;;;;;;5.03;1.80;;;1.00;1.00;;;;;;5034746;28;20419;-61
2022/02/28 04:15:15;;;;;;;3.03;1.80;;;1.00;1.00;;;;;;5048783;28;20429;-61
2022/02/28 04:17:42;;;;;;;2.40;1.40;;;1.00;1.00;;;;;;5058462;28;20461;-61
2022/02/28 04:20:11;;;;;;;4.13;1.40;;;1.00;1.00;;;;;;5058440;28;20428;-61
2022/02/28 04:22:42;;;;;;;4.10;1.83;;;1.00;99.90;;;;;;5057681;28;20424;-61
2022/02/28 04:25:10;;;;;;;4.18;1.77;;;1.00;99.90;;;;;;5057705;28;20789;-61
2022/02/28 04:27:37;;;;;;;3.17;1.70;;;1.00;99.90;;;;;;5037874;28;20415;-61
2022/02/28 04:30:05;;;;;;;3.43;1.50;;;1.00;1.00;;;;;;5038862;28;20434;-61
2022/02/28 04:32:32;;;;;;;3.60;1.67;;;0.90;1.00;;;;;;5057894;28;20714;-61
2022/02/28 04:34:59;;;;;;;3.58;1.73;;;0.90;1.00;;;;;;5058558;28;20480;-61
2022/02/28 04:37:27;;;;;;;3.60;2.00;;;1.00;1.00;;;;;;5057128;28;20489;-61
2022/02/28 04:39:54;;;;;;;2.67;1.50;;;1.10;1.00;;;;;;5058530;28;20486;-61
2022/02/28 04:42:21;;;;;;;4.07;1.52;;;1.10;1.00;;;;;;5055796;28;20429;-61
2022/02/28 04:44:48;;;;;;;2.50;1.40;;;1.10;1.00;;;;;;5058475;28;20439;-61
2022/02/28 04:47:15;;;;;;;3.80;2.00;;;1.10;1.00;;;;;;5057265;28;20425;-61
2022/02/28 04:49:42;;;;;;;3.10;1.60;;;1.20;1.00;;;;;;5057309;28;20781;-61
2022/02/28 04:52:09;;;;;;;3.67;1.50;;;1.30;1.00;;;;;;5057538;28;20753;-61
2022/02/28 04:54:38;;;;;;;3.10;1.50;;;1.20;99.90;;;;;;5057458;28;20847;-61
2022/02/28 04:57:05;;;;;;;3.07;1.60;;;1.10;99.90;;;;;;5039984;28;20441;-61
2022/02/28 04:59:33;;;;;;;3.90;1.80;;;1.10;1.00;;;;;;5044859;28;20495;-61
2022/02/28 05:02:00;;;;;;;5.53;2.00;;;1.10;1.00;;;;;;5055921;28;20440;-62
2022/02/28 05:04:27;;;;;;;3.90;1.80;;;1.00;1.00;;;;;;5057359;28;20494;-61
2022/02/28 05:06:54;;;;;;;4.95;2.30;;;1.00;1.00;;;;;;5057012;28;20483;-61
2022/02/28 05:09:21;;;;;;;3.50;2.22;;;1.00;1.00;;;;;;5057045;28;20807;-61
2022/02/28 05:11:49;;;;;;;3.20;1.70;;;1.00;1.00;;;;;;5041252;28;20431;-61
2022/02/28 05:14:16;;;;;;;3.30;1.70;;;1.10;1.00;;;;;;5037395;28;20435;-60
2022/02/28 05:16:43;;;;;;;4.50;2.30;;;1.20;1.00;;;;;;5038730;28;20431;-61
2022/02/28 05:19:10;;;;;;;6.07;2.13;;;1.20;1.00;;;;;;5057769;28;20450;-62
2022/02/28 05:21:37;;;;;;;3.53;1.88;;;1.10;1.00;;;;;;5056214;28;20511;-62
2022/02/28 05:24:04;;;;;;;4.30;1.77;;;1.00;1.00;;;;;;5049686;28;20551;-61
2022/02/28 05:26:32;;;;;;;3.67;1.88;;;0.80;1.00;;;;;;5048303;28;20477;-61
2022/02/28 05:29:00;;;;;;;4.67;1.80;;;0.60;1.00;;;;;;5055525;28;20494;-61
2022/02/28 05:31:27;;;;;;;4.13;2.17;;;0.60;99.90;;;;;;5055555;28;20502;-60
2022/02/28 05:33:54;;;;;;;4.35;1.75;;;0.60;94.50;;;;;;5056566;28;20437;-60
2022/02/28 05:36:21;;;;;;;3.95;1.90;;;0.60;99.90;;;;;;5055745;28;20820;-61
2022/02/28 05:38:48;;;;;;;3.45;1.67;;;0.70;12.50;;;;;;5051274;28;20438;-62
2022/02/28 05:41:15;;;;;;;3.90;1.80;;;0.70;1.00;;;;;;5054465;28;20470;-62
2022/02/28 05:43:42;;;;;;;3.45;1.55;;;0.80;1.00;;;;;;5054840;28;20938;-61
2022/02/28 05:46:11;;;;;;;3.90;1.80;;;0.80;99.90;;;;;;5056665;28;20436;-62
2022/02/28 05:48:38;;;;;;;4.68;2.20;;;1.00;19.40;;;;;;5052517;28;20918;-62
2022/02/28 05:51:05;;;;;;;4.90;2.10;;;1.00;1.00;;;;;;5052473;28;20437;-62
2022/02/28 05:53:32;;;;;;;3.63;1.80;;;1.00;1.00;;;;;;5056495;28;20494;-61
2022/02/28 05:55:59;;;;;;;6.30;2.20;;;0.90;1.00;;;;;;5055345;28;20422;-61
2022/02/28 05:58:26;;;;;;;3.00;1.80;;;0.80;1.00;;;;;;5056428;28;20433;-61
2022/02/28 06:00:53;;;;;;;4.80;2.30;;;0.70;1.00;;;;;;5056186;28;20436;-62
2022/02/28 06:03:22;;;;;;;3.20;1.70;;;0.70;1.00;;;;;;5056435;28;20491;-62
2022/02/28 06:05:48;;;;;;;4.10;2.10;;;0.60;1.00;;;;;;5054881;28;20425;-64
2022/02/28 06:08:16;;;;;;;3.92;2.20;;;0.60;35.40;;;;;;5055592;28;20902;-62
2022/02/28 06:10:43;;;;;;;4.88;2.08;;;0.70;99.90;;;;;;5046545;28;20430;-62
2022/02/28 06:13:10;;;;;;;4.43;1.73;;;0.60;99.90;;;;;;5054747;28;20942;-62
2022/02/28 06:15:41;;;;;;;4.82;2.42;;;0.70;47.90;;;;;;5039610;28;20446;-62
2022/02/28 06:18:09;;;;;;;4.90;2.70;;;0.70;1.00;;;;;;5036521;28;20434;-62
2022/02/28 06:20:38;;;;;;;5.30;2.70;;;0.70;56.30;;;;;;5041077;28;20465;-61
2022/02/28 06:23:05;;;;;;;4.10;2.05;;;0.70;41.40;;;;;;5053536;28;20714;-61
2022/02/28 06:25:32;;;;;;;5.00;2.42;;;0.70;1.00;;;;;;5056060;28;20867;-61
2022/02/28 06:27:59;;;;;;;4.68;2.50;;;0.70;1.00;;;;;;5052689;28;20421;-62
2022/02/28 06:30:26;;;;;;;5.72;2.30;;;0.70;1.00;;;;;;5052445;28;20437;-61
2022/02/28 06:32:53;;;;;;;4.90;2.33;;;0.80;2.00;;;;;;5052147;28;20429;-61
2022/02/28 06:35:21;;;;;;;4.78;2.88;;;0.80;1.00;;;;;;5054775;28;20789;-61
2022/02/28 06:37:49;;;;;;;4.10;2.13;;;0.90;1.00;;;;;;5036433;28;20691;-61
2022/02/28 06:40:16;;;;;;;4.40;1.97;;;1.00;1.00;;;;;;5051216;28;20445;-61
2022/02/28 06:42:43;;;;;;;5.53;2.50;;;1.10;1.00;;;;;;5053733;28;20423;-61
2022/02/28 06:45:11;;;;;;;4.35;2.00;;;1.00;1.00;;;;;;5052347;28;20887;-61
2022/02/28 06:47:38;;;;;;;4.28;2.33;;;1.10;1.00;;;;;;5039657;28;20421;-62
2022/02/28 06:50:06;;;;;;;5.68;2.50;;;1.00;1.00;;;;;;5053853;28;20421;-62
2022/02/28 06:52:34;;;;;;;7.47;2.10;;;1.10;1.00;;;;;;5044309;28;20427;-62
2022/02/28 06:55:03;;;;;;;4.85;2.30;;;1.10;1.00;;;;;;5032998;28;20485;-62
2022/02/28 06:57:33;;;;;;;4.88;1.98;;;1.30;1.00;;;;;;5044377;28;20669;-62
2022/02/28 07:00:00;;;;;;;7.00;2.87;;;1.30;1.00;;;;;;5051795;28;20511;-62
2022/02/28 07:02:27;;;;;;;3.95;2.50;;;1.30;1.00;;;;;;5048243;28;20533;-63
2022/02/28 07:04:54;;;;;;;3.75;1.90;;;1.40;1.00;;;;;;5047409;28;20534;-61
2022/02/28 07:07:21;;;;;;;4.20;2.72;;;1.40;1.00;;;;;;5048123;28;20479;-62
2022/02/28 07:09:48;;;;;;;5.88;2.80;;;1.50;1.00;;;;;;5033367;28;20435;-61
2022/02/28 07:12:17;;;;;;;5.40;2.30;;;1.70;1.00;;;;;;5043533;28;20421;-60
2022/02/28 07:14:44;;;;;;;3.85;2.50;;;1.90;1.00;;;;;;5051908;28;20453;-61
2022/02/28 07:17:11;;;;;;;6.55;2.53;;;2.20;1.00;;;;;;5035206;28;20462;-60
2022/02/28 07:19:38;;;;;;;5.47;2.78;;;2.10;99.90;;;;;;5051534;28;20998;-60
2022/02/28 07:22:05;;;;;;;4.20;2.07;;;2.10;99.90;;;;;;5052235;28;20718;-61
2022/02/28 07:24:32;;;;;;;5.68;3.00;;;2.10;99.90;;;;;;5052582;28;20424;-60
2022/02/28 07:27:01;;;;;;;5.65;3.65;;;2.40;1.00;;;;;;5049162;28;20493;-61
2022/02/28 07:29:30;;;;;;;15.23;9.93;;;2.70;99.90;;;;;;5034417;28;20522;-62
2022/02/28 07:31:57;;;;;;;9.70;4.78;;;2.90;99.90;;;;;;5047062;28;21005;-61
2022/02/28 07:34:24;;;;;;;27.70;16.53;;;3.00;99.90;;;;;;5050007;28;20443;-60
2022/02/28 07:36:51;;;;;;;7.22;3.40;;;3.20;99.90;;;;;;5050656;28;20745;-61
2022/02/28 07:39:19;;;;;;;6.05;3.20;;;3.30;25.10;;;;;;5051758;28;20429;-61
2022/02/28 07:41:46;;;;;;;7.22;3.42;;;3.20;1.00;;;;;;5041899;28;20421;-61
2022/02/28 07:44:13;;;;;;;7.17;3.50;;;3.30;1.00;;;;;;5050201;28;20429;-61
2022/02/28 07:46:42;;;;;;;4.90;2.80;;;3.40;1.00;;;;;;5052721;28;20422;-61
2022/02/28 07:49:09;;;;;;;8.90;3.63;;;3.50;1.00;;;;;;5041946;28;20832;-61
2022/02/28 07:51:36;;;;;;;4.90;3.20;;;3.60;1.00;;;;;;5042314;28;20436;-61
2022/02/28 07:54:03;;;;;;;5.30;2.88;;;3.70;1.00;;;;;;5050685;28;20548;-61
2022/02/28 07:56:30;;;;;;;6.07;3.50;;;3.60;1.00;;;;;;5051013;28;20432;-61
2022/02/28 07:58:56;;;;;;;5.30;3.30;;;3.60;1.00;;;;;;5048427;28;20465;-61
2022/02/28 08:01:23;;;;;;;6.90;3.53;;;3.30;1.00;;;;;;5049742;28;20427;-61
2022/02/28 08:03:52;;;;;;;5.90;3.10;;;3.00;1.00;;;;;;5046644;28;20439;-61
2022/02/28 08:06:19;;;;;;;5.70;3.45;;;2.70;1.00;;;;;;5050750;28;20417;-61
2022/02/28 08:08:46;;;;;;;7.28;3.80;;;2.80;1.00;;;;;;5049481;28;20495;-61
2022/02/28 08:11:13;;;;;;;8.27;3.60;;;3.00;1.00;;;;;;5045818;28;20421;-61
2022/02/28 08:13:40;;;;;;;6.78;2.80;;;3.10;1.00;;;;;;5033721;28;20434;-61
2022/02/28 08:16:07;;;;;;;6.85;3.50;;;3.40;1.00;;;;;;5047742;28;20421;-61
2022/02/28 08:18:34;;;;;;;7.28;4.70;;;3.50;1.00;;;;;;5044936;28;20443;-62
2022/02/28 08:21:02;;;;;;;6.18;3.80;;;3.50;1.00;;;;;;5049394;28;20422;-63
2022/02/28 08:23:29;;;;;;;9.90;6.00;;;3.50;1.00;;;;;;5047598;28;20534;-60
2022/02/28 08:25:56;;;;;;;13.18;6.72;;;3.50;1.00;;;;;;5052756;28;20483;-58
2022/02/28 08:28:24;;;;;;;7.82;4.32;;;3.60;1.00;;;;;;5047491;28;20422;-57
2022/02/28 08:30:50;;;;;;;8.77;5.30;;;3.70;1.00;;;;;;5045180;28;20433;-60
2022/02/28 08:33:17;;;;;;;7.10;4.00;;;3.80;1.00;;;;;;5048645;28;20507;-57
2022/02/28 08:35:44;;;;;;;5.97;3.30;;;3.90;1.00;;;;;;5048305;28;20801;-60
2022/02/28 08:38:13;;;;;;;6.68;4.03;;;4.00;1.00;;;;;;5046986;28;20469;-58
2022/02/28 08:40:40;;;;;;;5.97;3.45;;;4.00;1.00;;;;;;5049179;28;20487;-59
2022/02/28 08:43:07;;;;;;;9.63;4.80;;;4.00;1.00;;;;;;5040136;28;20440;-59
2022/02/28 08:45:33;;;;;;;6.30;3.80;;;4.10;1.00;;;;;;5017332;28;20469;-60
2022/02/28 08:48:00;;;;;;;8.82;4.55;;;4.10;1.00;;;;;;5028610;28;20454;-57
2022/02/28 08:50:27;;;;;;;6.15;3.55;;;4.10;1.00;;;;;;5030070;28;20466;-59
2022/02/28 08:52:54;;;;;;;6.85;4.20;;;4.30;1.00;;;;;;5030138;28;20541;-59
2022/02/28 08:55:23;;;;;;;10.30;5.20;;;4.30;1.00;;;;;;5030771;28;20426;-58
2022/02/28 08:57:50;;;;;;;6.90;4.60;;;4.30;1.00;;;;;;5030018;28;20438;-56
2022/02/28 09:00:17;;;;;;;7.57;4.00;;;4.30;1.00;;;;;;5028880;28;21325;-56
2022/02/28 09:02:45;;;;;;;11.93;4.10;;;4.40;1.00;;;;;;5029631;28;20431;-57
2022/02/28 09:05:12;;;;;;;7.20;3.58;;;4.60;1.00;;;;;;5028042;28;21065;-57
2022/02/28 09:07:39;;;;;;;8.45;4.05;;;4.60;1.00;;;;;;5031657;28;20873;-58
2022/02/28 09:10:07;;;;;;;5.28;3.60;;;4.60;1.00;;;;;;5024282;28;20434;-58
2022/02/28 09:12:35;;;;;;;6.32;3.60;;;4.60;1.00;;;;;;5035932;28;20452;-57
2022/02/28 09:15:02;;;;;;;6.90;4.30;;;4.70;1.00;;;;;;5033242;28;20470;-58
2022/02/28 09:17:32;;;;;;;6.00;4.28;;;4.70;1.00;;;;;;5030535;28;20486;-57
2022/02/28 09:19:59;;;;;;;6.93;3.80;;;4.70;1.00;;;;;;5035592;28;20434;-55
2022/02/28 09:22:26;;;;;;;6.47;4.10;;;4.70;1.00;;;;;;5034518;28;20431;-55
2022/02/28 09:24:54;;;;;;;7.03;3.40;;;4.70;1.00;;;;;;5035369;28;20473;-57
2022/02/28 09:27:23;;;;;;;5.35;3.30;;;4.80;1.00;;;;;;5024666;28;20501;-57
2022/02/28 09:29:56;;;;;;;5.95;3.90;;;4.90;1.00;;;;;;5022626;28;20442;-58
2022/02/28 09:32:29;;;;;;;8.25;4.25;;;5.20;1.00;;;;;;5024861;28;20722;-57
2022/02/28 09:35:01;;;;;;;5.22;3.40;;;5.50;1.00;;;;;;5027774;28;21042;-56
2022/02/28 09:37:28;;;;;;;13.63;7.00;;;5.60;1.00;;;;;;5028242;28;20427;-59
2022/02/28 09:39:56;;;;;;;7.75;3.95;;;5.70;1.00;;;;;;5034624;28;20443;-59
2022/02/28 09:42:23;;;;;;;6.45;3.78;;;5.70;1.00;;;;;;5031386;28;20485;-58
2022/02/28 09:44:51;;;;;;;8.38;4.35;;;5.80;1.00;;;;;;5044260;28;20736;-59
2022/02/28 09:47:21;;;;;;;7.68;4.07;;;6.00;1.00;;;;;;5053019;28;20427;-60
2022/02/28 09:49:48;;;;;;;6.13;3.90;;;6.10;1.00;;;;;;5045348;28;20498;-60
2022/02/28 09:52:15;;;;;;;6.53;3.58;;;6.20;1.00;;;;;;5035431;28;20529;-60
2022/02/28 09:54:42;;;;;;;4.55;3.25;;;6.50;1.00;;;;;;5034398;28;20508;-60
2022/02/28 09:57:10;;;;;;;6.80;3.50;;;6.70;1.00;;;;;;5038283;28;20856;-60
2022/02/28 09:59:37;;;;;;;6.25;3.33;;;6.40;1.00;;;;;;5040434;28;20491;-59
2022/02/28 10:02:05;;;;;;;4.95;3.25;;;6.30;1.00;;;;;;5039209;28;20427;-60
2022/02/28 10:04:33;;;;;;;6.03;3.90;;;6.50;1.00;;;;;;5048083;28;20464;-59
2022/02/28 10:07:00;;;;;;;4.77;2.10;;;6.60;1.00;;;;;;5042313;28;20979;-59
2022/02/28 10:09:29;;;;;;;4.30;2.42;;;6.60;1.00;;;;;;5042109;28;20430;-60
2022/02/28 10:11:56;;;;;;;3.60;1.80;;;6.70;1.00;;;;;;5037802;28;20430;-59
2022/02/28 10:14:22;;;;;;;3.65;1.92;;;6.60;1.00;;;;;;5037670;28;20429;-59
2022/02/28 10:16:57;;;;;;;3.80;1.90;;;6.70;1.00;;;;;;5041740;28;20456;-59
2022/02/28 10:19:26;;;;;;;2.65;1.75;;;6.80;1.00;;;;;;5053339;28;20439;-59
2022/02/28 10:21:55;;;;;;;4.53;1.83;;;6.80;1.00;;;;;;5041699;28;20431;-58
2022/02/28 10:24:30;;;;;;;3.25;2.05;;;6.80;1.00;;;;;;5038546;28;20516;-58
2022/02/28 10:26:58;;;;;;;6.05;3.05;;;6.80;1.00;;;;;;5028436;28;20426;-60
2022/02/28 10:29:26;;;;;;;5.97;3.50;;;6.70;1.00;;;;;;5038065;28;20808;-59
2022/02/28 10:31:58;;;;;;;4.50;2.20;;;6.70;1.00;;;;;;5043975;28;20740;-60
2022/02/28 10:34:26;;;;;;;4.88;2.25;;;6.70;1.00;;;;;;5050217;28;20865;-59
2022/02/28 10:37:06;;;;;;;3.63;2.28;;;6.80;1.00;;;;;;5047598;28;20511;-60
2022/02/28 10:39:34;;;;;;;3.70;1.60;;;7.10;1.00;;;;;;5050119;28;20520;-60
2022/02/28 10:42:07;;;;;;;4.22;2.50;;;7.30;1.00;;;;;;5045673;28;21069;-58
2022/02/28 10:44:34;;;;;;;4.32;2.60;;;7.40;1.00;;;;;;5049216;28;20808;-58
2022/02/28 10:47:05;;;;;;;4.40;2.08;;;7.60;1.00;;;;;;5049246;28;20441;-58
2022/02/28 10:49:33;;;;;;;4.30;2.20;;;7.70;1.00;;;;;;5053111;28;20421;-58
2022/02/28 10:52:04;;;;;;;4.32;2.55;;;7.90;1.00;;;;;;5051698;28;20463;-59
2022/02/28 10:54:33;;;;;;;3.88;1.90;;;8.00;1.00;;;;;;5049558;28;20440;-59
2022/02/28 10:57:04;;;;;;;2.90;2.00;;;8.10;1.00;;;;;;5045615;28;20459;-61
2022/02/28 10:59:39;;;;;;;3.70;2.00;;;8.00;1.00;;;;;;5039677;28;20443;-60
2022/02/28 11:02:06;;;;;;;3.72;2.45;;;8.00;1.00;;;;;;5037174;28;20425;-60
2022/02/28 11:04:38;;;;;;;3.53;2.40;;;8.10;1.00;;;;;;5039682;28;20441;-60
2022/02/28 11:07:09;;;;;;;3.58;2.05;;;8.30;1.00;;;;;;5035424;28;20490;-59
2022/02/28 11:09:39;;;;;;;7.68;5.03;;;8.70;1.00;;;;;;5041270;28;20439;-60
2022/02/28 11:12:28;;;;;;;3.30;2.38;;;9.20;1.00;;;;;;5050266;28;20522;-60
2022/02/28 11:14:58;;;;;;;3.42;2.38;;;9.60;1.00;;;;;;5039817;28;20425;-58
2022/02/28 11:17:28;;;;;;;5.10;2.53;;;10.00;1.00;;;;;;5041625;28;20499;-58
2022/02/28 11:19:58;;;;;;;4.25;2.70;;;9.80;1.00;;;;;;5051848;28;20433;-57
2022/02/28 11:22:28;;;;;;;5.20;2.83;;;9.80;1.00;;;;;;5050489;28;20449;-57
2022/02/28 11:24:55;;;;;;;8.57;5.87;;;9.90;1.00;;;;;;5052499;28;20548;-58
2022/02/28 11:27:23;;;;;;;4.75;3.28;;;9.70;1.00;;;;;;5052240;28;20417;-55
2022/02/28 11:29:53;;;;;;;5.00;2.92;;;9.60;1.00;;;;;;5053192;28;20510;-56
2022/02/28 11:32:23;;;;;;;4.38;2.80;;;9.60;1.00;;;;;;5051965;28;20429;-56
2022/02/28 11:34:51;;;;;;;5.03;2.25;;;9.70;1.00;;;;;;5050787;28;20429;-59
2022/02/28 11:37:22;;;;;;;5.65;2.28;;;9.60;1.00;;;;;;5050990;28;20455;-59
2022/02/28 11:39:51;;;;;;;6.80;3.03;;;8.90;1.00;;;;;;5052072;28;20437;-59
2022/02/28 11:42:36;;;;;;;4.70;2.80;;;8.70;1.00;;;;;;5050933;28;20453;-59
2022/02/28 11:45:04;;;;;;;4.35;2.20;;;9.10;1.00;;;;;;5045859;28;20955;-58
2022/02/28 11:47:32;;;;;;;6.10;2.63;;;9.40;1.00;;;;;;5049896;28;20436;-58
2022/02/28 11:50:14;;;;;;;6.88;2.97;;;9.90;1.00;;;;;;5052470;28;20437;-58
2022/02/28 11:52:41;;;;;;;4.25;2.45;;;10.10;1.00;;;;;;5049656;28;20499;-58
2022/02/28 11:55:12;;;;;;;4.05;2.38;;;10.10;1.00;;;;;;5054436;28;20523;-57
2022/02/28 11:57:53;;;;;;;3.80;2.83;;;10.40;1.00;;;;;;5070248;28;20415;-57
2022/02/28 12:00:39;;;;;;;3.38;2.20;;;10.70;1.00;;;;;;5071312;28;20497;-57
2022/02/28 12:03:25;;;;;;;3.85;2.60;;;10.10;1.00;;;;;;5071834;28;20411;-57
2022/02/28 12:05:52;;;;;;;3.87;2.13;;;10.20;1.00;;;;;;5057900;28;20432;-58
2022/02/28 12:08:36;;;;;;;3.80;2.10;;;10.60;1.00;;;;;;5046933;28;20518;-58
2022/02/28 12:11:20;;;;;;;4.10;2.60;;;10.60;1.00;;;;;;5049312;28;20421;-58
2022/02/28 12:13:59;;;;;;;5.30;2.15;;;10.60;1.00;;;;;;5046509;28;20429;-58
2022/02/28 12:19:34;;;;;;;2.70;1.80;;;11.00;1.00;;;;;;5050542;28;20470;-58
2022/02/28 12:22:02;;;;;;;2.90;1.90;;;11.30;1.00;;;;;;5050750;28;20506;-59
2022/02/28 12:25:08;;;;;;;4.60;1.85;;;11.20;1.00;;;;;;5046545;28;20437;-57
2022/02/28 12:27:42;;;;;;;4.10;2.13;;;10.70;1.00;;;;;;5035629;28;20722;-57
2022/02/28 12:30:44;;;;;;;3.75;2.00;;;10.60;1.00;;;;;;5050093;28;20433;-59
2022/02/28 12:33:12;;;;;;;10.60;7.05;;;9.70;1.00;;;;;;5049323;28;20853;-58
2022/02/28 12:35:40;;;;;;;7.32;5.15;;;9.80;1.00;;;;;;5049179;28;20429;-58
2022/02/28 12:38:07;;;;;;;3.90;2.47;;;10.30;1.00;;;;;;5050927;28;20502;-60
2022/02/28 12:40:34;;;;;;;2.92;1.60;;;10.50;1.00;;;;;;5053603;28;20468;-62
2022/02/28 12:43:02;;;;;;;3.78;1.90;;;10.70;1.00;;;;;;5051867;28;20433;-61
2022/02/28 12:45:29;;;;;;;4.20;2.07;;;10.90;1.00;;;;;;5041438;28;20437;-61
2022/02/28 12:47:57;;;;;;;3.77;2.00;;;10.80;1.00;;;;;;5047893;28;20462;-60
2022/02/28 12:50:28;;;;;;;3.20;1.70;;;11.00;1.00;;;;;;5048897;28;20487;-61
2022/02/28 12:52:55;;;;;;;4.50;2.20;;;11.20;1.00;;;;;;5045345;28;20419;-61
2022/02/28 12:55:22;;;;;;;3.45;2.13;;;11.10;1.00;;;;;;5047230;28;20433;-61
2022/02/28 12:57:49;;;;;;;3.30;2.00;;;11.20;1.00;;;;;;5045762;28;20459;-61
2022/02/28 13:00:18;;;;;;;3.28;1.90;;;10.90;1.00;;;;;;5044965;28;20523;-60
2022/02/28 13:03:01;;;;;;;3.67;2.25;;;11.10;1.00;;;;;;5048947;28;20515;-60
2022/02/28 13:05:28;;;;;;;3.90;2.40;;;11.30;1.00;;;;;;5044293;28;20449;-61
2022/02/28 13:08:02;;;;;;;3.40;1.70;;;11.50;1.00;;;;;;5045258;28;20488;-60
2022/02/28 13:10:29;;;;;;;3.40;1.80;;;11.00;1.00;;;;;;5058413;28;20433;-60
2022/02/28 13:12:56;;;;;;;3.35;1.77;;;11.00;1.00;;;;;;5053776;28;20424;-61
2022/02/28 13:15:30;;;;;;;2.70;1.70;;;11.30;1.00;;;;;;5053375;28;20429;-61